sensor_id;sensor_type;location;lat;lon;timestamp;pressure;altitude;pressure_sealevel;temperature;humidity
59877;BME280;45749;51.140;17.184;2023-03-19T00:01:05;100106.25;;;6.09;58.85
59877;BME280;45749;51.140;17.184;2023-03-19T00:03:31;100101.19;;;6.06;58.82
59877;BME280;45749;51.140;17.184;2023-03-19T00:05:56;100106.63;;;6.03;58.52
59877;BME280;45749;51.140;17.184;2023-03-19T00:08:22;100112.94;;;5.99;58.40
59877;BME280;45749;51.140;17.184;2023-03-19T00:10:48;100110.50;;;5.96;58.80
59877;BME280;45749;51.140;17.184;2023-03-19T00:13:13;100101.91;;;5.94;59.17
59877;BME280;45749;51.140;17.184;2023-03-19T00:15:39;100109.88;;;5.91;59.26
59877;BME280;45749;51.140;17.184;2023-03-19T00:18:04;100109.13;;;5.88;59.50
59877;BME280;45749;51.140;17.184;2023-03-19T00:20:30;100115.41;;;5.86;59.49
59877;BME280;45749;51.140;17.184;2023-03-19T00:22:56;100111.25;;;5.82;59.56
59877;BME280;45749;51.140;17.184;2023-03-19T00:25:21;100110.56;;;5.78;59.90
59877;BME280;45749;51.140;17.184;2023-03-19T00:27:47;100118.59;;;5.75;59.78
59877;BME280;45749;51.140;17.184;2023-03-19T00:30:12;100117.94;;;5.72;59.97
59877;BME280;45749;51.140;17.184;2023-03-19T00:32:39;100121.47;;;5.71;59.88
59877;BME280;45749;51.140;17.184;2023-03-19T00:35:05;100117.34;;;5.67;60.34
59877;BME280;45749;51.140;17.184;2023-03-19T00:37:33;100108.91;;;5.61;60.28
59877;BME280;45749;51.140;17.184;2023-03-19T00:39:58;100106.63;;;5.55;60.65
59877;BME280;45749;51.140;17.184;2023-03-19T00:42:24;100110.44;;;5.50;60.77
59877;BME280;45749;51.140;17.184;2023-03-19T00:44:49;100115.91;;;5.45;60.95
59877;BME280;45749;51.140;17.184;2023-03-19T00:47:15;100116.22;;;5.39;61.45
59877;BME280;45749;51.140;17.184;2023-03-19T00:49:40;100113.94;;;5.33;61.58
59877;BME280;45749;51.140;17.184;2023-03-19T00:52:06;100113.53;;;5.25;61.52
59877;BME280;45749;51.140;17.184;2023-03-19T00:54:32;100105.06;;;5.20;61.36
59877;BME280;45749;51.140;17.184;2023-03-19T00:56:57;100108.72;;;5.17;61.51
59877;BME280;45749;51.140;17.184;2023-03-19T00:59:23;100106.34;;;5.12;61.77
59877;BME280;45749;51.140;17.184;2023-03-19T01:01:50;100105.81;;;5.06;62.19
59877;BME280;45749;51.140;17.184;2023-03-19T01:04:16;100104.41;;;5.00;62.14
59877;BME280;45749;51.140;17.184;2023-03-19T01:06:42;100104.56;;;4.97;62.17
59877;BME280;45749;51.140;17.184;2023-03-19T01:09:08;100108.22;;;4.93;62.25
59877;BME280;45749;51.140;17.184;2023-03-19T01:11:33;100104.88;;;4.91;62.19
59877;BME280;45749;51.140;17.184;2023-03-19T01:13:58;100101.66;;;4.86;62.25
59877;BME280;45749;51.140;17.184;2023-03-19T01:16:24;100102.91;;;4.79;62.54
59877;BME280;45749;51.140;17.184;2023-03-19T01:18:49;100096.16;;;4.75;62.63
59877;BME280;45749;51.140;17.184;2023-03-19T01:21:15;100091.13;;;4.70;62.85
59877;BME280;45749;51.140;17.184;2023-03-19T01:23:41;100090.44;;;4.66;62.94
59877;BME280;45749;51.140;17.184;2023-03-19T01:26:06;100095.78;;;4.65;62.89
59877;BME280;45749;51.140;17.184;2023-03-19T01:28:32;100090.59;;;4.63;63.28
59877;BME280;45749;51.140;17.184;2023-03-19T01:31:01;100100.22;;;4.63;63.23
59877;BME280;45749;51.140;17.184;2023-03-19T01:33:29;100094.25;;;4.61;63.34
59877;BME280;45749;51.140;17.184;2023-03-19T01:35:55;100096.00;;;4.60;63.54
59877;BME280;45749;51.140;17.184;2023-03-19T01:38:22;100091.78;;;4.58;63.65
59877;BME280;45749;51.140;17.184;2023-03-19T01:40:48;100084.94;;;4.55;63.71
59877;BME280;45749;51.140;17.184;2023-03-19T01:45:43;100092.16;;;4.50;63.50
59877;BME280;45749;51.140;17.184;2023-03-19T01:48:28;100086.19;;;4.48;63.79
59877;BME280;45749;51.140;17.184;2023-03-19T01:50:56;100085.34;;;4.47;63.48
59877;BME280;45749;51.140;17.184;2023-03-19T01:53:25;100096.78;;;4.45;63.52
59877;BME280;45749;51.140;17.184;2023-03-19T01:55:56;100090.94;;;4.40;63.37
59877;BME280;45749;51.140;17.184;2023-03-19T01:58:23;100091.09;;;4.37;63.53
59877;BME280;45749;51.140;17.184;2023-03-19T02:00:49;100094.03;;;4.31;63.62
59877;BME280;45749;51.140;17.184;2023-03-19T02:03:15;100091.66;;;4.26;64.00
59877;BME280;45749;51.140;17.184;2023-03-19T02:05:43;100089.97;;;4.25;63.82
59877;BME280;45749;51.140;17.184;2023-03-19T02:08:12;100090.03;;;4.23;64.00
59877;BME280;45749;51.140;17.184;2023-03-19T02:10:39;100088.25;;;4.24;63.88
59877;BME280;45749;51.140;17.184;2023-03-19T02:13:05;100087.41;;;4.23;64.29
59877;BME280;45749;51.140;17.184;2023-03-19T02:15:31;100090.19;;;4.20;63.83
59877;BME280;45749;51.140;17.184;2023-03-19T02:17:57;100091.81;;;4.23;64.13
59877;BME280;45749;51.140;17.184;2023-03-19T02:20:56;100097.13;;;4.21;64.51
59877;BME280;45749;51.140;17.184;2023-03-19T02:23:56;100098.94;;;4.19;64.35
59877;BME280;45749;51.140;17.184;2023-03-19T02:26:26;100098.09;;;4.19;64.54
59877;BME280;45749;51.140;17.184;2023-03-19T02:28:53;100106.94;;;4.16;64.53
59877;BME280;45749;51.140;17.184;2023-03-19T02:31:19;100107.78;;;4.17;64.45
59877;BME280;45749;51.140;17.184;2023-03-19T02:34:02;100103.53;;;4.14;64.31
59877;BME280;45749;51.140;17.184;2023-03-19T02:36:31;100107.19;;;4.12;64.68
59877;BME280;45749;51.140;17.184;2023-03-19T02:39:01;100100.38;;;4.08;65.10
59877;BME280;45749;51.140;17.184;2023-03-19T02:41:28;100099.69;;;4.04;65.33
59877;BME280;45749;51.140;17.184;2023-03-19T02:43:57;100099.78;;;4.03;65.33
59877;BME280;45749;51.140;17.184;2023-03-19T02:46:24;100097.19;;;4.03;65.32
59877;BME280;45749;51.140;17.184;2023-03-19T02:48:49;100098.16;;;4.00;65.53
59877;BME280;45749;51.140;17.184;2023-03-19T02:51:14;100104.22;;;4.00;65.44
59877;BME280;45749;51.140;17.184;2023-03-19T02:53:40;100110.28;;;4.01;65.52
59877;BME280;45749;51.140;17.184;2023-03-19T02:56:06;100102.44;;;4.01;65.70
59877;BME280;45749;51.140;17.184;2023-03-19T02:58:31;100099.09;;;3.99;65.90
59877;BME280;45749;51.140;17.184;2023-03-19T03:00:56;100105.22;;;3.98;65.68
59877;BME280;45749;51.140;17.184;2023-03-19T03:03:22;100105.31;;;3.96;65.84
59877;BME280;45749;51.140;17.184;2023-03-19T03:05:47;100103.63;;;3.95;66.23
59877;BME280;45749;51.140;17.184;2023-03-19T03:08:13;100114.22;;;3.92;66.01
59877;BME280;45749;51.140;17.184;2023-03-19T03:10:38;100116.88;;;3.91;66.30
59877;BME280;45749;51.140;17.184;2023-03-19T03:13:03;100123.97;;;3.89;66.64
59877;BME280;45749;51.140;17.184;2023-03-19T03:15:29;100117.94;;;3.87;66.37
59877;BME280;45749;51.140;17.184;2023-03-19T03:17:56;100111.94;;;3.85;66.38
59877;BME280;45749;51.140;17.184;2023-03-19T03:20:22;100108.59;;;3.83;66.52
59877;BME280;45749;51.140;17.184;2023-03-19T03:22:49;100104.34;;;3.80;66.71
59877;BME280;45749;51.140;17.184;2023-03-19T03:25:14;100109.66;;;3.79;66.69
59877;BME280;45749;51.140;17.184;2023-03-19T03:27:40;100108.03;;;3.76;66.56
59877;BME280;45749;51.140;17.184;2023-03-19T03:30:08;100110.66;;;3.76;66.56
59877;BME280;45749;51.140;17.184;2023-03-19T03:32:36;100121.16;;;3.74;66.82
59877;BME280;45749;51.140;17.184;2023-03-19T03:35:02;100124.78;;;3.72;66.82
59877;BME280;45749;51.140;17.184;2023-03-19T03:37:28;100122.34;;;3.67;67.08
59877;BME280;45749;51.140;17.184;2023-03-19T03:39:54;100120.72;;;3.65;66.98
59877;BME280;45749;51.140;17.184;2023-03-19T03:42:20;100124.34;;;3.62;67.12
59877;BME280;45749;51.140;17.184;2023-03-19T03:44:45;100124.50;;;3.59;67.34
59877;BME280;45749;51.140;17.184;2023-03-19T03:47:11;100119.47;;;3.55;67.21
59877;BME280;45749;51.140;17.184;2023-03-19T03:49:37;100123.06;;;3.52;67.09
59877;BME280;45749;51.140;17.184;2023-03-19T03:52:03;100124.00;;;3.51;67.39
59877;BME280;45749;51.140;17.184;2023-03-19T03:54:28;100123.16;;;3.50;67.29
59877;BME280;45749;51.140;17.184;2023-03-19T03:56:55;100129.31;;;3.49;67.19
59877;BME280;45749;51.140;17.184;2023-03-19T03:59:20;100125.06;;;3.47;67.54
59877;BME280;45749;51.140;17.184;2023-03-19T04:01:46;100126.03;;;3.44;67.69
59877;BME280;45749;51.140;17.184;2023-03-19T04:04:11;100122.59;;;3.44;67.66
59877;BME280;45749;51.140;17.184;2023-03-19T04:06:37;100118.31;;;3.43;67.53
59877;BME280;45749;51.140;17.184;2023-03-19T04:09:02;100112.28;;;3.41;67.44
59877;BME280;45749;51.140;17.184;2023-03-19T04:11:29;100121.94;;;3.39;67.88
59877;BME280;45749;51.140;17.184;2023-03-19T04:13:55;100118.59;;;3.37;67.62
59877;BME280;45749;51.140;17.184;2023-03-19T04:16:22;100122.25;;;3.33;67.93
59877;BME280;45749;51.140;17.184;2023-03-19T04:18:48;100119.66;;;3.33;68.08
59877;BME280;45749;51.140;17.184;2023-03-19T04:21:13;100123.16;;;3.32;68.19
59877;BME280;45749;51.140;17.184;2023-03-19T04:23:39;100120.63;;;3.30;68.26
59877;BME280;45749;51.140;17.184;2023-03-19T04:26:05;100124.22;;;3.27;68.04
59877;BME280;45749;51.140;17.184;2023-03-19T04:28:33;100108.66;;;3.26;68.03
59877;BME280;45749;51.140;17.184;2023-03-19T04:31:04;100113.88;;;3.26;68.13
59877;BME280;45749;51.140;17.184;2023-03-19T04:33:31;100107.88;;;3.24;68.58
59877;BME280;45749;51.140;17.184;2023-03-19T04:35:56;100115.81;;;3.21;68.30
59877;BME280;45749;51.140;17.184;2023-03-19T04:38:23;100117.72;;;3.17;68.56
59877;BME280;45749;51.140;17.184;2023-03-19T04:40:50;100122.84;;;3.19;68.04
59877;BME280;45749;51.140;17.184;2023-03-19T04:43:16;100119.41;;;3.18;68.64
59877;BME280;45749;51.140;17.184;2023-03-19T04:45:42;100115.13;;;3.17;68.82
59877;BME280;45749;51.140;17.184;2023-03-19T04:48:07;100108.22;;;3.16;68.48
59877;BME280;45749;51.140;17.184;2023-03-19T04:50:33;100110.03;;;3.14;68.25
59877;BME280;45749;51.140;17.184;2023-03-19T04:52:59;100108.34;;;3.13;68.50
59877;BME280;45749;51.140;17.184;2023-03-19T04:55:24;100107.56;;;3.11;68.79
59877;BME280;45749;51.140;17.184;2023-03-19T04:57:49;100107.66;;;3.10;68.26
59877;BME280;45749;51.140;17.184;2023-03-19T05:00:16;100103.41;;;3.07;68.81
59877;BME280;45749;51.140;17.184;2023-03-19T05:02:41;100107.72;;;3.08;68.84
59877;BME280;45749;51.140;17.184;2023-03-19T05:05:10;100101.66;;;3.08;69.02
59877;BME280;45749;51.140;17.184;2023-03-19T05:07:38;100104.34;;;3.06;69.10
59877;BME280;45749;51.140;17.184;2023-03-19T05:10:04;100101.75;;;3.06;69.05
59877;BME280;45749;51.140;17.184;2023-03-19T05:12:30;100105.19;;;3.07;68.65
59877;BME280;45749;51.140;17.184;2023-03-19T05:14:56;100099.97;;;3.07;69.03
59877;BME280;45749;51.140;17.184;2023-03-19T05:17:22;100109.38;;;3.09;69.57
59877;BME280;45749;51.140;17.184;2023-03-19T05:19:47;100117.22;;;3.09;69.57
59877;BME280;45749;51.140;17.184;2023-03-19T05:22:13;100116.31;;;3.10;69.30
59877;BME280;45749;51.140;17.184;2023-03-19T05:24:38;100119.81;;;3.09;69.08
59877;BME280;45749;51.140;17.184;2023-03-19T05:27:03;100125.03;;;3.09;69.26
59877;BME280;45749;51.140;17.184;2023-03-19T05:29:29;100125.03;;;3.09;69.53
59877;BME280;45749;51.140;17.184;2023-03-19T05:31:54;100129.34;;;3.10;69.84
59877;BME280;45749;51.140;17.184;2023-03-19T05:34:20;100128.44;;;3.11;69.84
59877;BME280;45749;51.140;17.184;2023-03-19T05:36:46;100124.06;;;3.12;70.05
59877;BME280;45749;51.140;17.184;2023-03-19T05:39:11;100125.78;;;3.13;69.91
59877;BME280;45749;51.140;17.184;2023-03-19T05:41:36;100118.78;;;3.13;70.14
59877;BME280;45749;51.140;17.184;2023-03-19T05:44:02;100130.06;;;3.14;69.70
59877;BME280;45749;51.140;17.184;2023-03-19T05:46:28;100123.88;;;3.16;69.86
59877;BME280;45749;51.140;17.184;2023-03-19T05:48:53;100129.94;;;3.17;69.85
59877;BME280;45749;51.140;17.184;2023-03-19T05:51:19;100129.94;;;3.17;70.10
59877;BME280;45749;51.140;17.184;2023-03-19T05:53:44;100117.88;;;3.14;69.80
59877;BME280;45749;51.140;17.184;2023-03-19T05:56:10;100115.25;;;3.14;69.84
59877;BME280;45749;51.140;17.184;2023-03-19T05:58:35;100132.59;;;3.15;70.17
59877;BME280;45749;51.140;17.184;2023-03-19T06:01:01;100137.66;;;3.18;70.37
59877;BME280;45749;51.140;17.184;2023-03-19T06:03:27;100139.16;;;3.24;70.42
59877;BME280;45749;51.140;17.184;2023-03-19T06:05:53;100133.81;;;3.27;70.29
59877;BME280;45749;51.140;17.184;2023-03-19T06:08:19;100131.06;;;3.30;70.15
59877;BME280;45749;51.140;17.184;2023-03-19T06:10:45;100137.81;;;3.34;70.58
59877;BME280;45749;51.140;17.184;2023-03-19T06:13:11;100138.59;;;3.36;70.65
59877;BME280;45749;51.140;17.184;2023-03-19T06:15:36;100140.28;;;3.37;71.00
59877;BME280;45749;51.140;17.184;2023-03-19T06:18:02;100132.31;;;3.40;71.09
59877;BME280;45749;51.140;17.184;2023-03-19T06:20:28;100132.19;;;3.43;71.29
59877;BME280;45749;51.140;17.184;2023-03-19T06:22:53;100125.91;;;3.47;71.31
59877;BME280;45749;51.140;17.184;2023-03-19T06:25:19;100133.44;;;3.53;71.67
59877;BME280;45749;51.140;17.184;2023-03-19T06:27:44;100130.63;;;3.58;72.11
59877;BME280;45749;51.140;17.184;2023-03-19T06:30:10;100130.41;;;3.63;72.04
59877;BME280;45749;51.140;17.184;2023-03-19T06:32:36;100136.09;;;3.71;72.59
59877;BME280;45749;51.140;17.184;2023-03-19T06:35:02;100149.72;;;3.78;72.51
59877;BME280;45749;51.140;17.184;2023-03-19T06:37:28;100152.03;;;3.84;72.51
59877;BME280;45749;51.140;17.184;2023-03-19T06:39:54;100161.19;;;3.92;72.35
59877;BME280;45749;51.140;17.184;2023-03-19T06:42:20;100151.22;;;4.00;72.71
59877;BME280;45749;51.140;17.184;2023-03-19T06:44:46;100152.56;;;4.09;72.62
59877;BME280;45749;51.140;17.184;2023-03-19T06:47:12;100146.09;;;4.16;72.44
59877;BME280;45749;51.140;17.184;2023-03-19T06:49:38;100149.19;;;4.25;72.64
59877;BME280;45749;51.140;17.184;2023-03-19T06:52:04;100160.94;;;4.33;72.38
59877;BME280;45749;51.140;17.184;2023-03-19T06:54:30;100154.44;;;4.42;72.66
59877;BME280;45749;51.140;17.184;2023-03-19T06:56:55;100155.72;;;4.51;72.32
59877;BME280;45749;51.140;17.184;2023-03-19T06:59:21;100167.44;;;4.61;72.36
59877;BME280;45749;51.140;17.184;2023-03-19T07:01:47;100166.09;;;4.69;72.35
59877;BME280;45749;51.140;17.184;2023-03-19T07:04:12;100154.41;;;4.77;72.19
59877;BME280;45749;51.140;17.184;2023-03-19T07:06:37;100155.72;;;4.85;72.51
59877;BME280;45749;51.140;17.184;2023-03-19T07:09:03;100160.38;;;4.96;72.28
59877;BME280;45749;51.140;17.184;2023-03-19T07:11:29;100158.13;;;5.06;72.25
59877;BME280;45749;51.140;17.184;2023-03-19T07:13:55;100156.03;;;5.12;71.93
59877;BME280;45749;51.140;17.184;2023-03-19T07:16:20;100158.16;;;5.22;72.21
59877;BME280;45749;51.140;17.184;2023-03-19T07:18:45;100154.22;;;5.30;72.12
59877;BME280;45749;51.140;17.184;2023-03-19T07:21:11;100152.03;;;5.38;72.25
59877;BME280;45749;51.140;17.184;2023-03-19T07:23:36;100163.63;;;5.50;72.04
59877;BME280;45749;51.140;17.184;2023-03-19T07:26:02;100166.50;;;5.61;72.02
59877;BME280;45749;51.140;17.184;2023-03-19T07:28:28;100167.66;;;5.72;71.82
59877;BME280;45749;51.140;17.184;2023-03-19T07:30:53;100169.72;;;5.82;71.86
59877;BME280;45749;51.140;17.184;2023-03-19T07:33:20;100172.59;;;5.94;72.34
59877;BME280;45749;51.140;17.184;2023-03-19T07:35:46;100166.59;;;6.07;71.98
59877;BME280;45749;51.140;17.184;2023-03-19T07:38:11;100165.06;;;6.19;71.64
59877;BME280;45749;51.140;17.184;2023-03-19T07:40:37;100160.81;;;6.32;71.45
59877;BME280;45749;51.140;17.184;2023-03-19T07:43:02;100162.78;;;6.43;71.28
59877;BME280;45749;51.140;17.184;2023-03-19T07:45:28;100171.53;;;6.58;71.45
59877;BME280;45749;51.140;17.184;2023-03-19T07:47:53;100169.91;;;6.71;70.90
59877;BME280;45749;51.140;17.184;2023-03-19T07:50:19;100173.50;;;6.85;70.62
59877;BME280;45749;51.140;17.184;2023-03-19T07:52:48;100176.97;;;6.99;70.55
59877;BME280;45749;51.140;17.184;2023-03-19T07:55:15;100176.13;;;7.13;70.51
59877;BME280;45749;51.140;17.184;2023-03-19T07:57:41;100182.97;;;7.30;69.43
59877;BME280;45749;51.140;17.184;2023-03-19T08:00:08;100177.06;;;7.41;69.70
59877;BME280;45749;51.140;17.184;2023-03-19T08:02:34;100179.78;;;7.54;69.43
59877;BME280;45749;51.140;17.184;2023-03-19T08:05:00;100182.56;;;7.65;68.80
59877;BME280;45749;51.140;17.184;2023-03-19T08:07:28;100176.63;;;7.75;69.02
59877;BME280;45749;51.140;17.184;2023-03-19T08:09:53;100171.56;;;7.87;68.61
59877;BME280;45749;51.140;17.184;2023-03-19T08:12:19;100175.47;;;7.94;68.59
59877;BME280;45749;51.140;17.184;2023-03-19T08:14:44;100177.53;;;8.03;68.11
59877;BME280;45749;51.140;17.184;2023-03-19T08:17:09;100177.03;;;8.11;68.71
59877;BME280;45749;51.140;17.184;2023-03-19T08:19:35;100174.72;;;8.19;69.14
59877;BME280;45749;51.140;17.184;2023-03-19T08:22:03;100161.75;;;8.30;69.30
59877;BME280;45749;51.140;17.184;2023-03-19T08:24:28;100159.47;;;8.38;69.25
59877;BME280;45749;51.140;17.184;2023-03-19T08:26:54;100156.88;;;8.51;69.41
59877;BME280;45749;51.140;17.184;2023-03-19T08:29:20;100155.94;;;8.65;69.36
59877;BME280;45749;51.140;17.184;2023-03-19T08:31:45;100149.66;;;8.80;67.75
59877;BME280;45749;51.140;17.184;2023-03-19T08:34:11;100153.56;;;9.00;67.34
59877;BME280;45749;51.140;17.184;2023-03-19T08:36:36;100164.72;;;9.16;67.02
59877;BME280;45749;51.140;17.184;2023-03-19T08:39:02;100163.94;;;9.27;66.46
59877;BME280;45749;51.140;17.184;2023-03-19T08:41:28;100159.41;;;9.42;66.48
59877;BME280;45749;51.140;17.184;2023-03-19T08:43:54;100152.13;;;9.58;66.27
59877;BME280;45749;51.140;17.184;2023-03-19T08:46:19;100156.53;;;9.71;66.33
59877;BME280;45749;51.140;17.184;2023-03-19T08:48:45;100148.22;;;9.88;65.87
59877;BME280;45749;51.140;17.184;2023-03-19T08:51:10;100160.19;;;10.05;65.02
59877;BME280;45749;51.140;17.184;2023-03-19T08:53:36;100166.75;;;10.23;64.72
59877;BME280;45749;51.140;17.184;2023-03-19T08:56:04;100163.00;;;10.39;64.77
59877;BME280;45749;51.140;17.184;2023-03-19T08:58:30;100159.31;;;10.52;64.42
59877;BME280;45749;51.140;17.184;2023-03-19T09:03:27;100150.53;;;10.76;63.65
59877;BME280;45749;51.140;17.184;2023-03-19T09:05:53;100150.41;;;10.89;62.95
59877;BME280;45749;51.140;17.184;2023-03-19T09:08:21;100153.19;;;10.98;63.28
59877;BME280;45749;51.140;17.184;2023-03-19T09:10:47;100155.25;;;11.06;62.27
59877;BME280;45749;51.140;17.184;2023-03-19T09:13:12;100149.38;;;11.14;62.33
59877;BME280;45749;51.140;17.184;2023-03-19T09:15:38;100148.75;;;11.21;62.36
59877;BME280;45749;51.140;17.184;2023-03-19T09:18:03;100149.03;;;11.30;62.62
59877;BME280;45749;51.140;17.184;2023-03-19T09:20:28;100152.72;;;11.38;61.98
59877;BME280;45749;51.140;17.184;2023-03-19T09:22:54;100151.16;;;11.47;63.37
59877;BME280;45749;51.140;17.184;2023-03-19T09:25:19;100146.72;;;11.59;62.79
59877;BME280;45749;51.140;17.184;2023-03-19T09:27:45;100133.88;;;11.65;61.19
59877;BME280;45749;51.140;17.184;2023-03-19T09:30:11;100129.03;;;11.70;61.73
59877;BME280;45749;51.140;17.184;2023-03-19T09:32:36;100131.66;;;11.82;61.90
59877;BME280;45749;51.140;17.184;2023-03-19T09:35:02;100132.50;;;11.93;61.23
59877;BME280;45749;51.140;17.184;2023-03-19T09:37:28;100126.72;;;12.00;60.95
59877;BME280;45749;51.140;17.184;2023-03-19T09:39:53;100133.06;;;12.08;61.16
59877;BME280;45749;51.140;17.184;2023-03-19T09:44:47;100130.03;;;12.34;59.81
59877;BME280;45749;51.140;17.184;2023-03-19T09:49:46;100138.13;;;12.53;58.68
59877;BME280;45749;51.140;17.184;2023-03-19T09:54:44;100127.25;;;12.67;58.63
59877;BME280;45749;51.140;17.184;2023-03-19T09:57:11;100113.59;;;12.72;58.75
59877;BME280;45749;51.140;17.184;2023-03-19T09:59:38;100117.28;;;12.81;57.89
59877;BME280;45749;51.140;17.184;2023-03-19T10:04:42;100117.34;;;13.21;58.31
59877;BME280;45749;51.140;17.184;2023-03-19T10:10:35;100110.84;;;13.66;58.58
59877;BME280;45749;51.140;17.184;2023-03-19T10:16:18;100099.84;;;14.19;58.08
59877;BME280;45749;51.140;17.184;2023-03-19T10:18:48;100089.78;;;14.42;57.78
59877;BME280;45749;51.140;17.184;2023-03-19T10:21:23;100091.28;;;14.64;57.43
59877;BME280;45749;51.140;17.184;2023-03-19T10:23:54;100093.91;;;14.83;57.36
59877;BME280;45749;51.140;17.184;2023-03-19T10:26:27;100095.13;;;14.98;53.93
59877;BME280;45749;51.140;17.184;2023-03-19T10:29:09;100099.03;;;15.04;53.41
59877;BME280;45749;51.140;17.184;2023-03-19T10:31:51;100088.69;;;15.01;54.27
59877;BME280;45749;51.140;17.184;2023-03-19T10:37:22;100088.09;;;15.07;54.15
59877;BME280;45749;51.140;17.184;2023-03-19T10:39:49;100098.84;;;15.06;53.28
59877;BME280;45749;51.140;17.184;2023-03-19T10:42:52;100099.44;;;14.99;52.10
59877;BME280;45749;51.140;17.184;2023-03-19T10:45:30;100094.28;;;14.98;54.17
59877;BME280;45749;51.140;17.184;2023-03-19T10:47:58;100089.91;;;15.07;53.44
59877;BME280;45749;51.140;17.184;2023-03-19T10:50:29;100084.41;;;15.18;52.96
59877;BME280;45749;51.140;17.184;2023-03-19T10:55:47;100071.31;;;15.34;52.38
59877;BME280;45749;51.140;17.184;2023-03-19T10:58:17;100070.72;;;15.40;50.17
59877;BME280;45749;51.140;17.184;2023-03-19T11:00:47;100072.09;;;15.44;50.89
59877;BME280;45749;51.140;17.184;2023-03-19T11:03:29;100074.31;;;15.49;51.49
59877;BME280;45749;51.140;17.184;2023-03-19T11:09:01;100070.16;;;15.64;49.97
59877;BME280;45749;51.140;17.184;2023-03-19T11:11:43;100068.47;;;15.73;50.17
59877;BME280;45749;51.140;17.184;2023-03-19T11:14:19;100075.16;;;15.77;49.63
59877;BME280;45749;51.140;17.184;2023-03-19T11:16:56;100069.66;;;15.79;48.56
59877;BME280;45749;51.140;17.184;2023-03-19T11:19:26;100061.25;;;15.83;49.95
59877;BME280;45749;51.140;17.184;2023-03-19T11:21:59;100056.59;;;15.85;48.56
59877;BME280;45749;51.140;17.184;2023-03-19T11:24:25;100062.22;;;15.82;50.05
59877;BME280;45749;51.140;17.184;2023-03-19T11:26:54;100066.63;;;15.91;49.94
59877;BME280;45749;51.140;17.184;2023-03-19T11:29:22;100056.06;;;16.00;50.45
59877;BME280;45749;51.140;17.184;2023-03-19T11:31:56;100049.81;;;16.09;49.23
59877;BME280;45749;51.140;17.184;2023-03-19T11:34:32;100049.81;;;16.09;47.90
59877;BME280;45749;51.140;17.184;2023-03-19T11:37:14;100047.47;;;16.06;49.02
59877;BME280;45749;51.140;17.184;2023-03-19T11:56:42;100041.03;;;16.60;47.97
59877;BME280;45749;51.140;17.184;2023-03-19T12:04:52;100027.84;;;16.77;45.57
59877;BME280;45749;51.140;17.184;2023-03-19T12:10:41;100022.72;;;16.83;45.03
59877;BME280;45749;51.140;17.184;2023-03-19T12:16:02;100013.53;;;17.12;44.37
59877;BME280;45749;51.140;17.184;2023-03-19T12:21:12;100013.84;;;17.17;44.80
59877;BME280;45749;51.140;17.184;2023-03-19T12:32:15;100022.03;;;17.16;45.40
59877;BME280;45749;51.140;17.184;2023-03-19T12:34:48;100019.56;;;17.22;45.43
59877;BME280;45749;51.140;17.184;2023-03-19T12:40:20;100014.56;;;17.27;44.26
59877;BME280;45749;51.140;17.184;2023-03-19T12:42:39;100016.25;;;17.28;44.40
59877;BME280;45749;51.140;17.184;2023-03-19T12:45:16;100024.44;;;17.35;44.78
59877;BME280;45749;51.140;17.184;2023-03-19T12:47:44;100023.28;;;17.38;43.70
59877;BME280;45749;51.140;17.184;2023-03-19T12:50:13;100015.59;;;17.34;44.14
59877;BME280;45749;51.140;17.184;2023-03-19T12:52:48;100007.28;;;17.38;44.16
59877;BME280;45749;51.140;17.184;2023-03-19T12:55:26;100001.63;;;17.49;44.45
59877;BME280;45749;51.140;17.184;2023-03-19T12:58:21;100001.44;;;17.50;43.36
59877;BME280;45749;51.140;17.184;2023-03-19T13:00:58;99999.28;;;17.46;44.07
59877;BME280;45749;51.140;17.184;2023-03-19T13:06:02;99987.63;;;17.63;44.27
59877;BME280;45749;51.140;17.184;2023-03-19T13:11:22;99995.66;;;17.71;43.32
59877;BME280;45749;51.140;17.184;2023-03-19T13:13:57;99992.31;;;17.69;43.75
59877;BME280;45749;51.140;17.184;2023-03-19T13:16:34;99985.63;;;17.65;44.24
59877;BME280;45749;51.140;17.184;2023-03-19T13:19:17;99994.16;;;17.61;43.68
59877;BME280;45749;51.140;17.184;2023-03-19T13:21:44;99990.81;;;17.58;43.65
59877;BME280;45749;51.140;17.184;2023-03-19T13:24:20;99997.31;;;17.64;44.14
59877;BME280;45749;51.140;17.184;2023-03-19T13:26:47;99993.31;;;17.68;43.37
59877;BME280;45749;51.140;17.184;2023-03-19T13:29:27;99992.34;;;17.77;43.66
59877;BME280;45749;51.140;17.184;2023-03-19T13:32:06;99997.53;;;17.87;42.85
59877;BME280;45749;51.140;17.184;2023-03-19T13:34:35;99993.03;;;17.88;43.49
59877;BME280;45749;51.140;17.184;2023-03-19T13:39:31;99989.53;;;17.87;42.46
59877;BME280;45749;51.140;17.184;2023-03-19T13:45:29;99987.13;;;17.76;41.98
59877;BME280;45749;51.140;17.184;2023-03-19T13:51:02;99993.28;;;17.60;42.07
59877;BME280;45749;51.140;17.184;2023-03-19T13:56:04;99987.31;;;17.58;41.92
59877;BME280;45749;51.140;17.184;2023-03-19T13:58:46;99980.81;;;17.61;43.05
59877;BME280;45749;51.140;17.184;2023-03-19T14:03:58;99982.78;;;17.67;42.84
59877;BME280;45749;51.140;17.184;2023-03-19T14:06:44;99977.31;;;17.68;42.75
59877;BME280;45749;51.140;17.184;2023-03-19T14:11:53;99976.97;;;17.71;42.52
59877;BME280;45749;51.140;17.184;2023-03-19T14:14:21;99975.97;;;17.72;42.70
59877;BME280;45749;51.140;17.184;2023-03-19T14:16:48;99975.63;;;17.75;43.00
59877;BME280;45749;51.140;17.184;2023-03-19T14:19:18;99978.13;;;17.69;41.63
59877;BME280;45749;51.140;17.184;2023-03-19T14:22:08;99963.47;;;17.65;42.42
59877;BME280;45749;51.140;17.184;2023-03-19T14:24:37;99978.31;;;17.67;43.11
59877;BME280;45749;51.140;17.184;2023-03-19T14:27:17;99965.63;;;17.69;42.86